Trenton, North Dakota
Current Conditions -  °F | °C
As of 6:52 PM on Monday 22 Dec 2014 (Local Time) from KISN Reporting Station
Overcast Overcast  
Wind Chill: 15°   Ceiling: 800
Heat Index: 27°   Visibility: 7mi
Dew Point: 23°   Wind: 16mph
Humidity: 85%   Direction: 350°N
Pressure: 29.81"   Gusts: NA
Location:  48.07°N, 103.84°W
Report Text: KISN 230052Z AUTO 35014KT 7SM OVC008 M03/M05 A2981 RMK AO2 SLP122 T10281050
Loading
Personal Weather Stations






























Interactive Weather Map New forecast layout! Learn more

10-Day Weather Forecast

Advertisements
Track Severe Weather on mobile